Time;durP1;ratioP1;P1;durP2;ratioP2;P2;SDS_P1;SDS_P2;PMS_P1;PMS_P2;Temp;Humidity;BMP_temperature;BMP_pressure;BME280_temperature;BME280_humidity;BME280_pressure;Samples;Min_cycle;Max_cycle;Signal;HPM_P1;HPM_P2
2021/10/01 04:02:55;;;;;;;7.83;4.73;;;8.60;99.90;;;;;;4985899;28;20466;-69
2021/10/01 04:05:22;;;;;;;5.30;4.30;;;8.60;99.90;;;;;;4979566;28;20482;-69
2021/10/01 04:07:49;;;;;;;4.87;4.40;;;8.60;99.90;;;;;;4975540;28;20819;-68
2021/10/01 04:10:16;;;;;;;6.87;4.30;;;8.60;99.90;;;;;;4975416;28;20505;-68
2021/10/01 04:12:44;;;;;;;5.13;4.30;;;8.50;99.90;;;;;;4975685;28;20463;-70
2021/10/01 04:15:11;;;;;;;5.67;3.83;;;8.60;99.90;;;;;;4975527;28;20545;-68
2021/10/01 04:17:38;;;;;;;5.63;4.27;;;8.60;99.90;;;;;;4975618;28;20454;-69
2021/10/01 04:20:07;;;;;;;7.63;4.50;;;8.60;99.90;;;;;;4975219;28;20952;-69
2021/10/01 04:22:34;;;;;;;6.83;4.67;;;8.60;99.90;;;;;;4975223;28;20956;-69
2021/10/01 04:25:01;;;;;;;4.27;3.87;;;8.70;99.90;;;;;;4975589;28;20865;-68
2021/10/01 04:27:27;;;;;;;6.30;3.90;;;8.70;99.90;;;;;;4975648;28;20461;-68
2021/10/01 04:29:54;;;;;;;7.17;4.40;;;8.70;99.90;;;;;;4975500;28;20454;-69
2021/10/01 04:32:21;;;;;;;6.50;4.33;;;8.70;99.90;;;;;;4975726;28;20497;-68
2021/10/01 04:34:59;;;;;;;4.87;4.47;;;8.70;99.90;;;;;;4975729;28;20458;-69
2021/10/01 04:37:28;;;;;;;4.43;4.03;;;8.70;99.90;;;;;;4975096;28;20926;-69
2021/10/01 04:39:54;;;;;;;5.83;3.97;;;8.70;99.90;;;;;;4975416;28;20455;-69
2021/10/01 04:42:22;;;;;;;5.10;4.60;;;8.70;99.90;;;;;;4975476;28;20482;-69
2021/10/01 04:44:48;;;;;;;8.20;4.83;;;8.70;99.90;;;;;;4975794;28;20465;-69
2021/10/01 04:47:15;;;;;;;6.00;5.10;;;8.70;99.90;;;;;;4975644;28;20820;-69
2021/10/01 04:49:42;;;;;;;4.90;4.40;;;8.70;99.90;;;;;;4975323;28;20468;-69
2021/10/01 04:52:09;;;;;;;6.10;4.60;;;8.70;99.90;;;;;;4975192;28;20479;-69
2021/10/01 04:54:37;;;;;;;5.20;4.70;;;8.70;99.90;;;;;;4975428;28;20458;-69
2021/10/01 04:57:04;;;;;;;6.47;4.63;;;8.60;99.90;;;;;;4977709;28;20824;-69
2021/10/01 04:59:31;;;;;;;9.63;4.90;;;8.60;99.90;;;;;;4975262;28;20462;-68
2021/10/01 05:01:57;;;;;;;9.50;4.70;;;8.50;99.90;;;;;;4974995;28;20486;-69
2021/10/01 05:04:24;;;;;;;5.40;4.90;;;8.50;99.90;;;;;;4975063;28;20861;-69
2021/10/01 05:06:51;;;;;;;5.40;4.90;;;8.50;99.90;;;;;;4974749;28;20479;-70
2021/10/01 05:09:18;;;;;;;6.67;4.73;;;8.40;99.90;;;;;;4975220;28;20454;-70
2021/10/01 05:11:46;;;;;;;6.60;4.70;;;8.40;99.90;;;;;;4975123;28;20482;-69
2021/10/01 05:14:12;;;;;;;7.63;4.30;;;8.40;99.90;;;;;;4975001;28;20466;-69
2021/10/01 05:16:40;;;;;;;7.07;4.20;;;8.40;99.90;;;;;;4974930;28;20454;-70
2021/10/01 05:19:07;;;;;;;6.40;4.40;;;8.40;99.90;;;;;;4978195;28;20881;-70
2021/10/01 05:21:33;;;;;;;6.07;4.83;;;8.40;99.90;;;;;;4978131;28;20478;-70
2021/10/01 05:24:00;;;;;;;5.47;4.57;;;8.30;99.90;;;;;;4978830;28;20458;-69
2021/10/01 05:26:27;;;;;;;7.13;4.20;;;8.30;99.90;;;;;;4978861;28;20477;-69
2021/10/01 05:28:56;;;;;;;7.10;4.50;;;8.20;99.90;;;;;;4978447;28;20465;-69
2021/10/01 05:31:23;;;;;;;15.40;5.00;;;8.20;99.90;;;;;;4979203;28;20478;-70
2021/10/01 05:33:50;;;;;;;5.77;4.93;;;8.20;99.90;;;;;;4979317;28;20815;-70
2021/10/01 05:36:18;;;;;;;6.73;4.70;;;8.20;99.90;;;;;;4978564;28;20455;-70
2021/10/01 05:38:45;;;;;;;5.53;5.03;;;8.20;99.90;;;;;;4978127;28;20477;-70
2021/10/01 05:41:11;;;;;;;5.90;5.40;;;8.10;99.90;;;;;;4978134;28;20481;-71
2021/10/01 05:43:38;;;;;;;6.60;6.00;;;8.20;99.90;;;;;;4977697;28;20458;-69
2021/10/01 05:46:08;;;;;;;9.20;6.57;;;8.20;99.90;;;;;;4978099;28;20462;-70
2021/10/01 05:48:37;;;;;;;7.43;6.60;;;8.70;99.90;;;;;;4978228;28;20481;-70
2021/10/01 05:51:07;;;;;;;6.70;6.10;;;8.90;99.90;;;;;;4978913;28;20474;-70
2021/10/01 05:53:47;;;;;;;8.70;6.13;;;8.90;99.90;;;;;;4978276;28;20933;-70
2021/10/01 05:56:14;;;;;;;8.07;5.53;;;9.00;99.90;;;;;;4978860;28;20439;-69
2021/10/01 05:58:43;;;;;;;5.60;5.10;;;8.90;99.90;;;;;;4978408;28;20459;-70
2021/10/01 06:01:11;;;;;;;6.47;5.20;;;8.90;99.90;;;;;;4978039;28;20490;-70
2021/10/01 06:03:38;;;;;;;7.73;5.27;;;8.80;99.90;;;;;;4978399;28;20465;-70
2021/10/01 06:06:05;;;;;;;6.20;5.07;;;8.80;99.90;;;;;;4977520;28;21051;-70
2021/10/01 06:08:32;;;;;;;6.57;4.67;;;8.70;99.90;;;;;;4978863;28;20463;-70
2021/10/01 06:10:58;;;;;;;8.50;4.60;;;8.80;99.90;;;;;;4978282;28;20481;-69
2021/10/01 06:13:25;;;;;;;5.60;4.40;;;8.80;99.90;;;;;;4978401;28;20465;-70
2021/10/01 06:15:52;;;;;;;7.40;5.33;;;8.80;99.90;;;;;;4978559;28;20477;-69
2021/10/01 06:18:20;;;;;;;6.10;4.90;;;8.80;99.90;;;;;;4978973;28;20466;-69
2021/10/01 06:20:47;;;;;;;5.00;4.50;;;8.80;99.90;;;;;;4977906;28;20977;-70
2021/10/01 06:23:16;;;;;;;6.33;4.97;;;8.90;99.90;;;;;;4977580;28;20976;-69
2021/10/01 06:25:45;;;;;;;4.80;4.40;;;9.10;99.90;;;;;;4977691;28;21008;-69
2021/10/01 06:28:12;;;;;;;4.70;4.30;;;9.40;99.90;;;;;;4977101;28;20470;-70
2021/10/01 06:30:38;;;;;;;4.00;3.60;;;9.80;99.90;;;;;;4978466;28;20482;-69
2021/10/01 06:33:05;;;;;;;5.43;3.43;;;10.30;99.90;;;;;;4977313;28;20458;-69
2021/10/01 06:35:33;;;;;;;4.70;3.73;;;10.80;99.90;;;;;;4977725;28;20825;-69
2021/10/01 06:38:00;;;;;;;5.20;3.43;;;11.50;99.90;;;;;;4977508;28;20477;-69
2021/10/01 06:40:27;;;;;;;3.50;3.30;;;12.00;99.90;;;;;;4977871;28;20454;-70
2021/10/01 06:42:55;;;;;;;6.43;3.37;;;12.70;99.90;;;;;;4978801;28;20481;-69
2021/10/01 06:45:24;;;;;;;3.20;2.90;;;13.50;99.90;;;;;;4977117;28;20844;-70
2021/10/01 06:47:56;;;;;;;6.20;3.23;;;14.00;99.90;;;;;;4976499;28;20858;-69
2021/10/01 06:50:51;;;;;;;4.33;3.20;;;14.20;99.90;;;;;;4976626;28;20447;-68
2021/10/01 07:21:17;;;;;;;4.47;3.10;;;18.90;99.40;;;;;;4978619;28;20523;-69
2021/10/01 07:35:35;;;;;;;2.80;2.60;;;20.00;94.10;;;;;;4962479;28;20529;-69
2021/10/01 08:19:50;;;;;;;3.87;3.43;;;23.00;80.60;;;;;;4975817;28;20501;-68
2021/10/01 08:22:17;;;;;;;2.80;2.53;;;23.40;78.20;;;;;;4975472;28;20832;-69
2021/10/01 08:24:43;;;;;;;4.07;2.53;;;23.40;78.00;;;;;;4975507;28;20462;-70
2021/10/01 08:27:10;;;;;;;3.63;2.10;;;24.00;77.50;;;;;;4975671;28;20485;-69
2021/10/01 08:29:37;;;;;;;2.73;2.50;;;24.30;75.80;;;;;;4975194;28;20454;-69
2021/10/01 08:32:07;;;;;;;2.60;2.40;;;24.80;73.70;;;;;;4975428;28;20474;-68
2021/10/01 08:34:36;;;;;;;3.30;2.70;;;24.70;71.80;;;;;;4975339;28;20454;-69
2021/10/01 08:37:03;;;;;;;2.70;2.33;;;25.00;72.20;;;;;;4975556;28;20509;-69
2021/10/01 08:39:30;;;;;;;2.67;2.47;;;24.70;70.20;;;;;;4975075;28;20465;-69
2021/10/01 08:41:57;;;;;;;7.60;2.77;;;24.70;68.90;;;;;;4975226;28;21004;-69
2021/10/01 08:44:28;;;;;;;2.80;2.20;;;25.00;68.40;;;;;;4976324;28;20942;-69
2021/10/01 08:46:55;;;;;;;2.97;2.23;;;25.10;68.80;;;;;;4977044;28;20792;-69
2021/10/01 08:49:24;;;;;;;2.90;2.27;;;24.60;68.90;;;;;;4976055;28;20462;-69
2021/10/01 08:51:52;;;;;;;5.43;3.03;;;25.40;68.70;;;;;;4977614;28;20837;-70
2021/10/01 08:54:19;;;;;;;3.50;2.70;;;25.70;66.40;;;;;;4980231;28;20455;-68
2021/10/01 08:56:46;;;;;;;2.40;2.20;;;26.40;64.90;;;;;;4980228;28;20450;-68
2021/10/01 08:59:13;;;;;;;2.23;2.03;;;26.70;63.40;;;;;;4979873;28;20458;-68
2021/10/01 09:01:40;;;;;;;5.13;2.20;;;27.30;63.40;;;;;;4980019;28;20474;-68
2021/10/01 09:04:07;;;;;;;2.50;2.30;;;27.30;60.50;;;;;;4979179;28;20942;-69
2021/10/01 09:06:35;;;;;;;2.93;2.07;;;28.20;61.10;;;;;;4979303;28;20903;-69
2021/10/01 09:09:05;;;;;;;2.10;1.90;;;28.50;58.30;;;;;;4979893;28;20462;-69
2021/10/01 09:11:35;;;;;;;1.80;1.70;;;28.70;57.10;;;;;;4980895;28;20913;-69
2021/10/01 09:14:04;;;;;;;2.83;2.33;;;29.20;56.10;;;;;;4980099;28;20454;-70
2021/10/01 09:16:31;;;;;;;3.30;2.23;;;29.00;55.30;;;;;;4978998;28;20451;-69
2021/10/01 09:18:58;;;;;;;3.03;2.43;;;28.90;55.50;;;;;;4982685;28;20510;-69
2021/10/01 09:21:26;;;;;;;3.77;2.43;;;28.70;55.90;;;;;;4978998;28;20969;-70
2021/10/01 09:24:00;;;;;;;4.80;3.23;;;28.70;55.20;;;;;;4978704;28;20988;-69
2021/10/01 09:26:29;;;;;;;2.17;2.07;;;29.20;55.30;;;;;;4978828;28;20463;-70
2021/10/01 09:28:58;;;;;;;2.50;2.30;;;28.80;54.50;;;;;;4978797;28;20485;-70
2021/10/01 09:31:38;;;;;;;2.43;2.23;;;28.70;53.60;;;;;;4978983;28;20474;-69
2021/10/01 09:34:07;;;;;;;3.90;2.13;;;28.00;54.30;;;;;;4978760;28;20948;-70
2021/10/01 09:36:34;;;;;;;1.83;1.73;;;28.50;55.10;;;;;;4978988;28;20450;-69
2021/10/01 09:39:03;;;;;;;1.73;1.63;;;29.10;53.70;;;;;;4978829;28;20458;-70
2021/10/01 09:41:33;;;;;;;2.30;2.07;;;29.40;53.30;;;;;;4978345;28;20478;-70
2021/10/01 09:44:04;;;;;;;2.23;2.03;;;29.70;52.80;;;;;;4978919;28;20465;-69
2021/10/01 09:46:36;;;;;;;2.37;2.17;;;29.30;53.10;;;;;;4978604;28;20466;-69
2021/10/01 09:49:04;;;;;;;3.37;2.03;;;29.70;53.40;;;;;;4977818;28;20901;-70
2021/10/01 09:51:31;;;;;;;2.33;1.97;;;30.10;53.50;;;;;;4979515;28;20478;-70
2021/10/01 09:53:57;;;;;;;3.27;1.90;;;30.50;52.10;;;;;;4978748;28;20968;-70
2021/10/01 09:56:27;;;;;;;5.20;2.10;;;30.80;51.00;;;;;;4978979;28;20458;-69
2021/10/01 09:59:13;;;;;;;4.53;2.00;;;30.40;50.60;;;;;;4979421;28;20440;-69
2021/10/01 10:02:06;;;;;;;3.40;1.90;;;30.00;50.60;;;;;;4977797;28;21012;-68
2021/10/01 10:04:35;;;;;;;2.40;2.20;;;29.80;52.20;;;;;;4977413;28;20511;-70
2021/10/01 10:07:10;;;;;;;3.60;2.07;;;29.90;50.90;;;;;;4978146;28;20993;-69
2021/10/01 10:09:39;;;;;;;4.77;2.00;;;30.20;51.80;;;;;;4978255;28;20464;-70
2021/10/01 10:12:10;;;;;;;1.70;1.60;;;30.70;51.10;;;;;;4977822;28;20475;-70
2021/10/01 10:14:43;;;;;;;2.17;1.70;;;30.10;50.10;;;;;;4979460;28;20436;-69
2021/10/01 10:17:15;;;;;;;1.70;1.47;;;29.80;51.40;;;;;;4978726;28;20439;-71
2021/10/01 10:19:42;;;;;;;2.60;1.67;;;30.20;51.40;;;;;;4977734;28;20921;-69
2021/10/01 10:22:09;;;;;;;6.40;2.00;;;30.30;50.60;;;;;;4979122;28;20490;-70
2021/10/01 10:24:35;;;;;;;1.87;1.77;;;29.80;50.40;;;;;;4977790;28;20466;-70
2021/10/01 10:27:02;;;;;;;4.57;1.70;;;29.80;52.00;;;;;;4977466;28;20465;-71
2021/10/01 10:29:32;;;;;;;2.73;1.80;;;29.90;51.00;;;;;;4978049;28;20674;-71
2021/10/01 10:31:59;;;;;;;2.37;2.17;;;29.80;51.10;;;;;;4977273;28;20531;-69
2021/10/01 10:34:29;;;;;;;2.40;2.20;;;29.80;51.10;;;;;;4977228;28;20466;-70
2021/10/01 10:37:05;;;;;;;3.93;2.10;;;30.00;51.30;;;;;;4978026;28;20818;-70
2021/10/01 10:39:41;;;;;;;2.00;1.80;;;30.10;51.30;;;;;;4978124;28;20498;-70
2021/10/01 10:42:17;;;;;;;4.10;1.80;;;30.00;50.60;;;;;;4977448;28;20478;-69
2021/10/01 10:44:51;;;;;;;4.13;2.67;;;30.10;51.90;;;;;;4977484;28;20813;-69
2021/10/01 10:47:55;;;;;;;3.53;2.10;;;30.00;50.50;;;;;;4977581;28;20466;-70
2021/10/01 10:50:46;;;;;;;2.70;2.00;;;29.40;51.60;;;;;;4957308;28;20454;-69
2021/10/01 10:53:25;;;;;;;4.93;1.67;;;29.00;56.50;;;;;;4980079;28;20802;-69
2021/10/01 10:55:59;;;;;;;3.23;2.50;;;28.70;53.40;;;;;;4977274;28;20439;-70
2021/10/01 10:58:45;;;;;;;3.30;2.10;;;27.90;53.30;;;;;;4977223;28;20434;-70
2021/10/01 11:01:42;;;;;;;2.50;2.20;;;27.00;53.80;;;;;;4976922;28;20533;-69
2021/10/01 11:04:40;;;;;;;2.37;1.80;;;26.30;54.90;;;;;;4954286;28;20455;-69
2021/10/01 11:07:09;;;;;;;2.17;1.83;;;25.50;56.10;;;;;;4976627;28;20834;-69
2021/10/01 11:09:39;;;;;;;2.80;1.80;;;25.20;58.00;;;;;;4977004;28;20462;-70
2021/10/01 11:12:27;;;;;;;2.83;2.53;;;25.00;58.30;;;;;;4976988;28;20474;-70
2021/10/01 11:15:12;;;;;;;2.07;1.97;;;24.60;58.00;;;;;;4977358;28;20519;-70
2021/10/01 11:17:41;;;;;;;3.97;2.57;;;24.60;58.50;;;;;;4970214;28;20453;-70
2021/10/01 11:20:08;;;;;;;4.03;2.87;;;24.70;60.20;;;;;;4976516;28;20450;-70
2021/10/01 11:22:38;;;;;;;3.20;1.90;;;24.80;59.90;;;;;;4976210;28;20474;-69
2021/10/01 11:25:12;;;;;;;4.83;2.20;;;24.90;60.50;;;;;;4976123;28;20455;-70
2021/10/01 11:27:51;;;;;;;3.50;2.40;;;24.90;60.40;;;;;;4976343;28;20521;-69
2021/10/01 11:30:18;;;;;;;4.63;2.30;;;25.10;59.50;;;;;;4975823;28;20825;-69
2021/10/01 11:32:46;;;;;;;1.77;1.63;;;25.00;59.50;;;;;;4976411;28;20465;-69
2021/10/01 11:35:12;;;;;;;5.47;2.57;;;25.30;59.20;;;;;;4976221;28;20463;-69
2021/10/01 11:37:43;;;;;;;2.70;2.17;;;25.30;58.90;;;;;;4981329;28;20439;-69
2021/10/01 11:40:12;;;;;;;2.90;2.00;;;25.30;58.60;;;;;;4981024;28;20461;-69
2021/10/01 11:42:41;;;;;;;2.47;1.90;;;25.00;59.00;;;;;;4975932;28;20462;-69
2021/10/01 11:45:12;;;;;;;4.37;2.03;;;25.10;58.70;;;;;;4975465;28;20465;-69
2021/10/01 11:47:40;;;;;;;2.27;1.87;;;25.30;59.20;;;;;;4975970;28;20463;-69
2021/10/01 11:50:09;;;;;;;2.70;1.60;;;25.50;60.90;;;;;;4976033;28;20461;-70
2021/10/01 11:52:43;;;;;;;1.60;1.40;;;25.70;61.10;;;;;;4975729;28;20475;-69
2021/10/01 11:55:11;;;;;;;1.73;1.63;;;26.00;63.80;;;;;;4975771;28;20439;-69
2021/10/01 11:57:38;;;;;;;1.57;1.50;;;25.80;57.70;;;;;;4976382;28;20974;-69
2021/10/01 12:00:08;;;;;;;2.70;1.33;;;25.80;59.70;;;;;;4976242;28;20459;-69
2021/10/01 12:02:37;;;;;;;2.23;1.70;;;25.70;57.80;;;;;;4975784;28;20490;-69
2021/10/01 12:05:36;;;;;;;4.80;1.40;;;25.50;57.20;;;;;;4976110;28;20462;-70
2021/10/01 12:08:05;;;;;;;2.63;1.20;;;25.30;57.20;;;;;;4936746;29;20468;-69
2021/10/01 12:10:33;;;;;;;1.57;1.47;;;25.10;58.90;;;;;;4971980;28;20899;-69
2021/10/01 12:13:06;;;;;;;1.73;1.63;;;25.20;58.30;;;;;;4979672;28;20450;-70
2021/10/01 12:15:48;;;;;;;2.20;1.30;;;25.50;60.40;;;;;;4979104;28;20439;-70
2021/10/01 12:18:35;;;;;;;1.53;1.43;;;25.30;56.30;;;;;;4978662;28;20441;-70
2021/10/01 12:21:07;;;;;;;1.70;1.00;;;25.20;55.90;;;;;;4978603;28;20475;-69
2021/10/01 12:23:36;;;;;;;1.37;1.27;;;25.30;57.20;;;;;;4976508;28;20450;-70
2021/10/01 12:26:22;;;;;;;1.63;1.30;;;25.40;55.50;;;;;;4975721;28;20494;-70
2021/10/01 12:29:11;;;;;;;1.47;1.37;;;25.10;57.40;;;;;;4975755;28;20966;-70
2021/10/01 12:31:43;;;;;;;2.30;1.33;;;25.20;58.70;;;;;;4975973;28;20479;-69
2021/10/01 12:34:15;;;;;;;1.37;1.27;;;25.40;58.80;;;;;;4975562;28;20439;-70
2021/10/01 12:36:45;;;;;;;1.27;0.80;;;25.40;58.90;;;;;;4975921;28;20498;-70
2021/10/01 12:39:12;;;;;;;1.20;1.10;;;25.60;55.50;;;;;;4975119;28;20823;-70
2021/10/01 12:41:39;;;;;;;1.33;1.23;;;25.70;57.80;;;;;;4975384;28;20501;-70
2021/10/01 12:44:10;;;;;;;1.30;1.20;;;25.70;54.40;;;;;;4975314;28;20591;-70
2021/10/01 12:46:40;;;;;;;3.53;3.07;;;25.60;53.40;;;;;;4975473;28;20438;-70
2021/10/01 12:49:28;;;;;;;1.53;1.10;;;25.70;57.00;;;;;;4975555;28;20505;-69
2021/10/01 12:52:21;;;;;;;2.20;2.10;;;25.70;54.10;;;;;;4972168;28;20482;-69
2021/10/01 12:54:50;;;;;;;2.97;1.50;;;26.00;54.40;;;;;;4975370;28;20447;-70
2021/10/01 12:57:23;;;;;;;1.70;1.20;;;26.00;53.80;;;;;;4975096;28;20450;-70
2021/10/01 12:59:52;;;;;;;1.80;1.50;;;26.00;53.80;;;;;;4974975;28;20439;-69
2021/10/01 13:02:20;;;;;;;1.30;1.20;;;25.80;54.00;;;;;;4974752;28;20483;-69
2021/10/01 13:04:59;;;;;;;1.47;1.37;;;25.90;54.50;;;;;;4975269;28;20462;-69
2021/10/01 13:07:37;;;;;;;6.30;1.53;;;25.80;52.90;;;;;;4975134;28;20864;-69
2021/10/01 13:10:22;;;;;;;1.90;1.37;;;25.90;52.60;;;;;;4975245;28;20443;-69
2021/10/01 13:12:52;;;;;;;1.37;1.27;;;26.00;53.70;;;;;;4980037;28;20438;-68
2021/10/01 13:15:22;;;;;;;2.20;1.37;;;26.10;54.70;;;;;;4980283;28;20443;-69
2021/10/01 13:18:04;;;;;;;1.80;1.13;;;26.10;52.60;;;;;;4975302;28;20446;-69
2021/10/01 13:20:33;;;;;;;2.27;1.27;;;26.10;52.00;;;;;;4975380;28;20451;-69
2021/10/01 13:23:04;;;;;;;1.27;1.17;;;26.10;50.70;;;;;;4975294;28;20937;-69
2021/10/01 13:25:35;;;;;;;2.20;1.43;;;26.10;50.10;;;;;;4975330;28;20525;-69
2021/10/01 13:28:04;;;;;;;1.83;1.30;;;26.00;53.30;;;;;;4975295;28;20471;-69
2021/10/01 13:30:31;;;;;;;4.40;1.60;;;26.00;51.10;;;;;;4975105;28;20450;-69
2021/10/01 13:32:58;;;;;;;1.03;1.03;;;26.20;55.10;;;;;;4975068;28;20455;-69
2021/10/01 13:35:26;;;;;;;3.03;1.10;;;25.90;50.90;;;;;;4975107;28;20451;-70
2021/10/01 13:37:53;;;;;;;3.07;1.30;;;25.60;51.40;;;;;;4975320;28;20451;-69
2021/10/01 13:40:21;;;;;;;3.73;1.07;;;25.40;51.40;;;;;;4978587;28;20821;-69
2021/10/01 13:42:48;;;;;;;2.03;1.40;;;25.40;52.60;;;;;;4978477;28;20466;-70
2021/10/01 13:45:15;;;;;;;1.27;1.10;;;25.50;50.60;;;;;;4978380;28;20462;-69
2021/10/01 13:47:42;;;;;;;1.30;1.30;;;25.50;53.60;;;;;;4978450;28;20481;-69
2021/10/01 13:50:11;;;;;;;2.43;1.50;;;25.30;51.20;;;;;;4978625;28;20825;-69
2021/10/01 13:52:38;;;;;;;1.30;1.20;;;25.40;54.60;;;;;;4982260;28;20565;-69
2021/10/01 13:55:07;;;;;;;2.20;1.57;;;25.40;52.30;;;;;;4978225;28;20450;-69
2021/10/01 13:57:35;;;;;;;4.93;1.77;;;25.40;53.40;;;;;;4978398;28;20455;-69
2021/10/01 14:00:02;;;;;;;1.77;1.70;;;25.50;53.10;;;;;;4977668;28;20949;-69
2021/10/01 14:02:29;;;;;;;1.40;1.13;;;25.40;52.40;;;;;;4977269;28;20486;-69
2021/10/01 14:04:56;;;;;;;1.17;1.10;;;25.30;52.60;;;;;;4977778;28;20462;-69
2021/10/01 14:07:22;;;;;;;2.47;1.30;;;25.20;52.10;;;;;;4977582;28;20848;-70
2021/10/01 14:09:49;;;;;;;3.47;1.20;;;25.20;52.70;;;;;;4977804;28;20461;-70
2021/10/01 14:12:16;;;;;;;2.60;1.70;;;25.20;52.50;;;;;;4977419;28;20482;-69
2021/10/01 14:14:44;;;;;;;1.60;1.60;;;25.20;52.90;;;;;;4977620;28;20485;-69
2021/10/01 14:17:11;;;;;;;1.50;1.40;;;25.00;54.00;;;;;;4977671;28;20481;-69
2021/10/01 14:19:37;;;;;;;1.87;1.77;;;25.10;54.10;;;;;;4977443;28;20848;-69
2021/10/01 14:22:05;;;;;;;5.30;1.90;;;25.20;55.20;;;;;;4978034;28;20479;-69
2021/10/01 14:24:33;;;;;;;1.60;1.50;;;25.10;54.40;;;;;;4977623;28;20461;-68
2021/10/01 14:27:00;;;;;;;3.43;1.87;;;25.20;55.80;;;;;;4977333;28;20494;-69
2021/10/01 14:29:27;;;;;;;2.90;1.50;;;25.20;55.20;;;;;;4977827;28;20854;-69
2021/10/01 14:31:55;;;;;;;9.73;1.77;;;25.30;53.70;;;;;;4977341;28;20486;-69
2021/10/01 14:34:22;;;;;;;1.97;1.80;;;25.30;54.60;;;;;;4978428;28;20462;-69
2021/10/01 14:36:49;;;;;;;2.20;1.70;;;25.40;54.50;;;;;;4977239;28;20866;-69
2021/10/01 14:39:16;;;;;;;1.97;1.87;;;25.40;54.90;;;;;;4977742;28;20450;-69
2021/10/01 14:41:43;;;;;;;2.13;2.00;;;25.30;55.80;;;;;;4976937;28;20482;-69
2021/10/01 14:44:09;;;;;;;1.70;1.60;;;25.50;56.00;;;;;;4977163;28;20466;-69
2021/10/01 14:46:36;;;;;;;1.73;1.70;;;25.40;55.90;;;;;;4977404;28;20461;-69
2021/10/01 14:49:04;;;;;;;2.10;1.90;;;25.50;57.00;;;;;;4988029;28;20482;-70
2021/10/01 14:51:31;;;;;;;2.63;2.10;;;25.60;54.80;;;;;;4977208;28;20496;-69
2021/10/01 14:53:58;;;;;;;1.70;1.70;;;25.50;54.80;;;;;;4976834;28;20506;-69
2021/10/01 14:56:25;;;;;;;2.50;2.30;;;25.30;57.40;;;;;;4977038;28;20463;-69
2021/10/01 14:58:52;;;;;;;1.97;1.87;;;25.40;58.10;;;;;;4977079;28;20482;-69
2021/10/01 15:01:19;;;;;;;3.00;2.40;;;25.30;57.70;;;;;;4976986;28;20482;-69
2021/10/01 15:03:47;;;;;;;2.57;2.20;;;25.20;60.20;;;;;;4977779;28;20455;-69
2021/10/01 15:06:15;;;;;;;2.30;2.20;;;25.30;58.10;;;;;;4977515;28;20462;-69
2021/10/01 15:08:42;;;;;;;2.77;2.60;;;25.30;58.00;;;;;;4978126;28;20490;-69
2021/10/01 15:11:08;;;;;;;7.40;2.70;;;25.20;59.10;;;;;;4977914;28;20474;-69
2021/10/01 15:13:35;;;;;;;13.77;3.00;;;25.00;59.70;;;;;;4977135;28;20980;-68
2021/10/01 15:16:02;;;;;;;36.77;4.83;;;24.80;65.80;;;;;;4977580;28;20469;-69
2021/10/01 15:18:29;;;;;;;25.27;2.87;;;24.70;63.30;;;;;;4977503;28;20446;-69
2021/10/01 15:20:56;;;;;;;3.53;2.50;;;24.80;61.30;;;;;;4977191;28;20579;-69
2021/10/01 15:23:24;;;;;;;3.80;2.27;;;24.70;61.00;;;;;;4978288;28;20454;-70
2021/10/01 15:25:53;;;;;;;5.33;2.73;;;24.70;63.20;;;;;;4976788;28;20938;-70
2021/10/01 15:28:20;;;;;;;4.40;2.37;;;24.60;61.60;;;;;;4976674;28;20839;-70
2021/10/01 15:30:47;;;;;;;2.77;2.57;;;24.50;63.30;;;;;;4976202;28;20478;-70
2021/10/01 15:33:14;;;;;;;3.10;2.57;;;24.30;62.70;;;;;;4976526;28;20458;-70
2021/10/01 15:35:41;;;;;;;4.10;2.13;;;24.30;64.10;;;;;;4976564;28;20455;-70
2021/10/01 15:38:08;;;;;;;6.03;2.63;;;24.10;69.00;;;;;;4976293;28;20458;-70
2021/10/01 15:40:40;;;;;;;3.30;2.67;;;24.10;65.80;;;;;;4976248;28;20483;-69
2021/10/01 15:43:07;;;;;;;4.13;2.50;;;24.00;64.30;;;;;;4976297;28;20443;-69
2021/10/01 15:45:35;;;;;;;7.23;2.57;;;23.80;66.40;;;;;;4975974;28;20454;-69
2021/10/01 15:48:02;;;;;;;3.77;2.60;;;23.70;68.60;;;;;;4975983;28;20497;-70
2021/10/01 15:50:30;;;;;;;5.30;2.17;;;23.60;68.40;;;;;;4976195;28;20819;-69
2021/10/01 15:52:56;;;;;;;4.70;3.20;;;23.40;68.70;;;;;;4976592;28;20501;-69
2021/10/01 15:55:24;;;;;;;4.27;3.20;;;23.30;68.80;;;;;;4976123;28;20446;-69
2021/10/01 15:57:53;;;;;;;7.93;5.53;;;23.20;70.40;;;;;;4976077;28;20458;-70
2021/10/01 16:00:21;;;;;;;5.80;5.30;;;23.00;71.20;;;;;;4975530;28;20450;-71
2021/10/01 16:02:48;;;;;;;5.03;4.53;;;22.90;71.80;;;;;;4976024;28;20442;-71
2021/10/01 16:05:16;;;;;;;3.97;3.57;;;22.80;71.30;;;;;;4976138;28;20807;-71
2021/10/01 16:07:45;;;;;;;3.40;3.03;;;22.70;70.90;;;;;;4976221;28;20454;-72
2021/10/01 16:10:13;;;;;;;4.23;3.27;;;22.60;67.30;;;;;;4975515;28;20486;-72
2021/10/01 16:12:40;;;;;;;4.90;3.20;;;22.40;71.10;;;;;;4975839;28;20481;-72
2021/10/01 16:15:11;;;;;;;10.50;2.80;;;22.30;72.00;;;;;;4976460;28;20462;-73
2021/10/01 16:17:39;;;;;;;3.67;3.07;;;22.10;73.60;;;;;;4976449;28;20450;-71
2021/10/01 16:20:11;;;;;;;2.53;2.33;;;22.00;75.60;;;;;;4975493;28;20451;-73
2021/10/01 16:22:39;;;;;;;2.40;2.20;;;21.80;73.60;;;;;;4976171;28;20463;-73
2021/10/01 16:25:07;;;;;;;2.50;2.30;;;21.70;70.80;;;;;;4985358;28;20946;-73
2021/10/01 16:27:34;;;;;;;2.20;2.00;;;21.60;70.60;;;;;;4976592;28;20451;-72
2021/10/01 16:30:01;;;;;;;2.07;1.97;;;21.50;70.50;;;;;;4975676;28;20487;-72
2021/10/01 16:32:29;;;;;;;3.13;2.13;;;21.40;71.40;;;;;;4975742;28;20481;-72
2021/10/01 16:34:56;;;;;;;2.20;2.00;;;21.30;72.60;;;;;;4975869;28;20545;-72
2021/10/01 16:37:23;;;;;;;2.93;2.70;;;21.20;73.30;;;;;;4975427;28;20938;-72
2021/10/01 16:39:50;;;;;;;5.30;2.60;;;21.10;74.20;;;;;;4975510;28;20481;-71
2021/10/01 16:42:16;;;;;;;3.70;2.50;;;20.90;74.80;;;;;;4975347;28;20485;-72
2021/10/01 16:44:43;;;;;;;5.07;2.63;;;20.80;73.70;;;;;;4975319;28;20461;-72
2021/10/01 16:47:12;;;;;;;7.43;2.80;;;20.60;72.90;;;;;;4977147;28;20454;-68
2021/10/01 16:49:40;;;;;;;4.67;2.03;;;20.50;75.00;;;;;;4979702;28;20471;-72
2021/10/01 16:52:07;;;;;;;5.60;2.30;;;20.30;74.80;;;;;;4980738;28;20474;-72
2021/10/01 16:54:34;;;;;;;3.27;2.10;;;20.20;75.80;;;;;;4978262;28;20455;-72
2021/10/01 16:57:02;;;;;;;5.90;2.50;;;20.10;75.60;;;;;;4976297;28;20458;-73
2021/10/01 16:59:28;;;;;;;3.43;2.33;;;20.00;76.50;;;;;;4975832;28;20541;-73
2021/10/01 17:01:55;;;;;;;3.43;2.40;;;19.80;77.60;;;;;;4975308;28;20493;-72
2021/10/01 17:04:22;;;;;;;8.10;2.00;;;19.70;77.90;;;;;;4976739;28;20463;-72
2021/10/01 17:06:50;;;;;;;4.13;1.87;;;19.60;78.10;;;;;;4975351;28;20459;-72
2021/10/01 17:09:16;;;;;;;1.97;1.87;;;19.50;79.60;;;;;;4975178;28;20478;-72
2021/10/01 17:11:43;;;;;;;3.97;1.63;;;19.40;79.70;;;;;;4975762;28;20838;-72
2021/10/01 17:14:10;;;;;;;1.70;1.60;;;19.40;80.30;;;;;;4979090;28;20462;-72
2021/10/01 17:16:37;;;;;;;7.53;1.90;;;19.30;81.20;;;;;;4979139;28;20458;-72
2021/10/01 17:19:03;;;;;;;2.33;2.13;;;19.20;82.60;;;;;;4979410;28;20455;-72
2021/10/01 17:21:30;;;;;;;14.50;2.67;;;19.10;84.30;;;;;;4979296;28;20501;-72
2021/10/01 17:23:58;;;;;;;5.20;1.90;;;19.00;85.20;;;;;;4979274;28;20463;-74
2021/10/01 17:26:25;;;;;;;5.73;2.30;;;19.00;86.60;;;;;;4978940;28;20461;-71
2021/10/01 17:28:52;;;;;;;2.40;2.20;;;18.90;87.40;;;;;;4978937;28;20879;-72
2021/10/01 17:31:19;;;;;;;3.47;2.30;;;18.80;87.50;;;;;;4978927;28;20842;-71
2021/10/01 17:33:45;;;;;;;4.07;3.10;;;18.70;86.70;;;;;;4978896;28;20501;-71
2021/10/01 17:36:13;;;;;;;5.87;2.10;;;18.60;87.20;;;;;;4978758;28;20938;-71
2021/10/01 17:38:40;;;;;;;2.93;2.63;;;18.60;89.30;;;;;;4979089;28;20462;-71
2021/10/01 17:41:08;;;;;;;4.90;2.57;;;18.50;90.40;;;;;;4979083;28;20489;-71
2021/10/01 17:43:35;;;;;;;5.60;3.30;;;18.40;90.30;;;;;;4978890;28;20459;-71
2021/10/01 17:46:01;;;;;;;3.90;2.03;;;18.30;91.00;;;;;;4978369;28;20954;-71
2021/10/01 17:48:28;;;;;;;5.10;2.80;;;18.10;91.60;;;;;;4978844;28;20519;-71
2021/10/01 17:50:55;;;;;;;3.70;2.87;;;18.00;92.30;;;;;;4978306;28;20474;-70
2021/10/01 17:53:22;;;;;;;4.70;2.60;;;17.90;92.60;;;;;;4978405;28;20446;-71
2021/10/01 17:55:48;;;;;;;2.93;2.50;;;17.80;93.20;;;;;;4978739;28;20461;-71
2021/10/01 17:58:16;;;;;;;5.07;2.90;;;17.70;93.20;;;;;;4978729;28;20457;-71
2021/10/01 18:00:50;;;;;;;4.33;2.70;;;17.70;94.20;;;;;;4978111;28;21008;-70
2021/10/01 18:03:17;;;;;;;2.43;2.33;;;17.60;94.30;;;;;;4979723;28;20493;-71
2021/10/01 18:05:44;;;;;;;3.93;2.40;;;17.60;95.20;;;;;;4978522;28;20922;-72
2021/10/01 18:08:11;;;;;;;4.10;2.53;;;17.60;96.30;;;;;;4978433;28;20474;-71
2021/10/01 18:10:38;;;;;;;2.43;2.20;;;17.50;97.40;;;;;;4978016;28;20489;-70
2021/10/01 18:13:06;;;;;;;3.60;2.23;;;17.50;97.50;;;;;;4978231;28;20459;-71
2021/10/01 18:15:34;;;;;;;2.30;2.10;;;17.50;97.80;;;;;;4978254;28;20463;-71
2021/10/01 18:18:01;;;;;;;7.50;2.87;;;17.40;98.60;;;;;;4977913;28;20458;-71
2021/10/01 18:20:28;;;;;;;4.40;2.17;;;17.40;99.30;;;;;;4978306;28;20454;-70
2021/10/01 18:22:54;;;;;;;2.40;2.20;;;17.30;99.80;;;;;;4978389;28;20938;-71